Time;durP1;ratioP1;P1;durP2;ratioP2;P2;SDS_P1;SDS_P2;PMS_P1;PMS_P2;Temp;Humidity;BMP_temperature;BMP_pressure;BME280_temperature;BME280_humidity;BME280_pressure;Samples;Min_cycle;Max_cycle;Signal;HPM_P1;HPM_P2
2021/11/28 00:00:45;;;;;;;12.80;7.97;;;2.70;99.90;;;;;;5105305;28;20467;-81
2021/11/28 00:03:14;;;;;;;8.60;5.70;;;2.40;99.90;;;;;;5104671;28;20363;-80
2021/11/28 00:05:42;;;;;;;11.03;6.73;;;2.30;99.90;;;;;;5105335;28;20861;-79
2021/11/28 00:08:35;;;;;;;9.17;7.63;;;2.20;99.90;;;;;;5104978;28;20423;-81
2021/11/28 00:11:02;;;;;;;14.10;8.77;;;1.80;99.90;;;;;;5105017;28;20395;-80
2021/11/28 00:13:35;;;;;;;8.00;5.80;;;1.90;99.90;;;;;;5087962;28;20532;-81
2021/11/28 00:16:02;;;;;;;17.93;6.57;;;1.90;99.90;;;;;;5087410;28;20371;-79
2021/11/28 00:18:29;;;;;;;10.73;5.50;;;2.00;99.90;;;;;;5105514;28;20367;-80
2021/11/28 00:20:55;;;;;;;9.00;6.77;;;1.80;99.90;;;;;;5104394;28;20383;-80
2021/11/28 00:23:21;;;;;;;6.53;5.93;;;1.80;99.90;;;;;;5105570;28;20393;-80
2021/11/28 00:25:47;;;;;;;11.07;7.53;;;1.80;99.90;;;;;;5105708;28;20374;-81
2021/11/28 00:28:16;;;;;;;11.47;6.80;;;1.90;99.90;;;;;;5105148;28;20162;-81
2021/11/28 00:30:41;;;;;;;10.27;8.30;;;1.90;99.90;;;;;;5086991;28;20381;-80
2021/11/28 00:33:07;;;;;;;10.20;7.73;;;1.90;99.90;;;;;;5105201;28;20421;-80
2021/11/28 00:35:33;;;;;;;7.20;6.50;;;1.90;99.90;;;;;;5104681;28;20232;-79
2021/11/28 00:37:59;;;;;;;10.17;7.20;;;1.90;99.90;;;;;;5087604;28;20408;-81
2021/11/28 00:40:25;;;;;;;12.37;8.83;;;2.00;99.90;;;;;;5104893;28;20485;-79
2021/11/28 00:42:51;;;;;;;9.20;6.63;;;2.10;99.90;;;;;;5105217;28;20375;-80
2021/11/28 00:45:17;;;;;;;8.93;7.30;;;2.00;99.90;;;;;;5105234;28;20364;-79
2021/11/28 00:47:43;;;;;;;8.23;6.53;;;2.00;99.90;;;;;;5105305;28;20171;-80
2021/11/28 00:52:55;;;;;;;8.20;5.50;;;2.00;99.90;;;;;;5088903;28;20194;-80
2021/11/28 00:55:21;;;;;;;11.00;7.33;;;2.00;99.90;;;;;;5106100;28;20664;-80
2021/11/28 00:57:47;;;;;;;14.33;7.13;;;2.20;99.90;;;;;;5106054;28;20368;-81
2021/11/28 01:00:14;;;;;;;8.73;6.90;;;2.10;99.90;;;;;;5105623;28;20175;-81
2021/11/28 01:02:39;;;;;;;14.27;7.10;;;1.90;99.90;;;;;;5105726;28;20182;-81
2021/11/28 01:05:07;;;;;;;9.07;7.17;;;1.90;99.90;;;;;;5105431;28;20371;-80
2021/11/28 01:07:32;;;;;;;8.63;7.03;;;1.90;99.90;;;;;;5105866;28;20163;-81
2021/11/28 01:09:59;;;;;;;9.70;7.10;;;1.90;99.90;;;;;;5106083;28;20730;-80
2021/11/28 01:12:25;;;;;;;7.53;6.60;;;1.80;99.90;;;;;;5105941;28;20226;-81
2021/11/28 01:14:51;;;;;;;13.90;7.43;;;1.90;99.90;;;;;;5114761;28;20414;-81
2021/11/28 01:17:19;;;;;;;13.20;6.83;;;2.00;99.90;;;;;;5116076;28;20382;-81
2021/11/28 01:19:45;;;;;;;11.37;7.90;;;1.90;99.90;;;;;;5110420;28;20378;-81
2021/11/28 01:22:13;;;;;;;8.90;7.43;;;1.90;99.90;;;;;;5111036;28;20399;-80
2021/11/28 01:24:40;;;;;;;7.07;6.37;;;1.90;99.90;;;;;;5109965;28;20680;-81
2021/11/28 01:27:11;;;;;;;16.63;8.27;;;2.00;99.90;;;;;;5110683;28;20454;-80
2021/11/28 01:29:37;;;;;;;7.80;7.10;;;2.00;99.90;;;;;;5109175;28;20447;-80
2021/11/28 01:32:04;;;;;;;11.70;8.47;;;2.00;99.90;;;;;;5092059;28;20497;-81
2021/11/28 01:34:30;;;;;;;7.53;5.87;;;2.00;99.90;;;;;;5110152;28;20483;-80
2021/11/28 01:36:57;;;;;;;17.10;8.40;;;1.80;99.90;;;;;;5108850;28;20426;-81
2021/11/28 01:39:23;;;;;;;13.07;7.90;;;1.80;99.90;;;;;;5109377;28;20389;-82
2021/11/28 01:41:50;;;;;;;20.13;8.20;;;1.70;99.90;;;;;;5110360;28;20371;-82
2021/11/28 01:44:16;;;;;;;9.07;5.90;;;1.80;99.90;;;;;;5110534;28;20397;-81
2021/11/28 01:46:43;;;;;;;8.47;6.20;;;1.80;99.90;;;;;;5110695;28;20432;-82
2021/11/28 01:49:10;;;;;;;10.40;6.87;;;1.80;99.90;;;;;;5110627;28;20722;-82
2021/11/28 01:51:37;;;;;;;12.90;7.07;;;1.70;99.90;;;;;;5109733;28;20406;-82
2021/11/28 01:54:10;;;;;;;8.47;5.90;;;1.70;99.90;;;;;;5109742;28;20445;-82
2021/11/28 01:56:37;;;;;;;9.27;7.03;;;1.80;99.90;;;;;;5110034;28;20400;-82
2021/11/28 01:59:03;;;;;;;6.90;5.23;;;1.90;99.90;;;;;;5110045;28;20413;-82
2021/11/28 02:01:29;;;;;;;12.30;9.00;;;1.80;99.90;;;;;;5110272;28;20412;-82
2021/11/28 02:03:55;;;;;;;13.87;7.57;;;1.70;99.90;;;;;;5110543;28;20396;-82
2021/11/28 02:06:21;;;;;;;8.83;6.80;;;1.60;99.90;;;;;;5110804;28;20417;-81
2021/11/28 02:08:49;;;;;;;16.23;9.03;;;1.60;99.90;;;;;;5110209;28;20475;-82
2021/11/28 02:11:15;;;;;;;8.33;6.43;;;1.40;99.90;;;;;;5110878;28;20418;-82
2021/11/28 02:13:42;;;;;;;10.33;7.97;;;1.40;99.90;;;;;;5094325;28;20419;-83
2021/11/28 02:16:09;;;;;;;11.37;8.00;;;1.50;99.90;;;;;;5119429;28;20171;-79
2021/11/28 02:18:35;;;;;;;7.77;5.67;;;1.60;99.90;;;;;;5119944;28;20360;-79
2021/11/28 02:21:04;;;;;;;11.67;8.50;;;1.70;99.90;;;;;;5120058;28;20428;-80
2021/11/28 02:23:30;;;;;;;37.97;6.53;;;1.60;99.90;;;;;;5116904;28;20383;-82
2021/11/28 02:26:01;;;;;;;9.33;6.27;;;1.50;99.90;;;;;;5113673;28;20375;-82
2021/11/28 02:28:27;;;;;;;8.27;6.40;;;1.40;99.90;;;;;;5092682;28;20409;-82
2021/11/28 02:30:54;;;;;;;10.23;7.07;;;1.40;99.90;;;;;;5109039;28;20430;-82
2021/11/28 02:33:20;;;;;;;8.40;6.47;;;1.20;99.90;;;;;;5109187;28;20746;-82
2021/11/28 02:35:46;;;;;;;13.70;8.00;;;1.20;99.90;;;;;;5090301;28;20426;-81
2021/11/28 02:38:12;;;;;;;12.70;8.57;;;1.20;99.90;;;;;;5108900;28;20368;-82
2021/11/28 02:40:40;;;;;;;7.33;5.00;;;1.10;99.90;;;;;;5108913;28;20397;-81
2021/11/28 02:43:06;;;;;;;10.97;6.60;;;1.00;99.90;;;;;;5109636;28;20425;-82
2021/11/28 02:45:33;;;;;;;8.97;6.40;;;1.00;99.90;;;;;;5111942;28;20386;-81
2021/11/28 02:48:02;;;;;;;7.57;6.73;;;1.20;99.90;;;;;;5108976;28;20170;-81
2021/11/28 02:50:29;;;;;;;11.53;6.23;;;1.20;99.90;;;;;;5108479;28;20430;-80
2021/11/28 02:53:00;;;;;;;8.73;7.60;;;1.10;99.90;;;;;;5090267;28;20376;-80
2021/11/28 02:55:34;;;;;;;9.20;8.03;;;1.00;99.90;;;;;;5108589;28;20448;-82
2021/11/28 02:57:59;;;;;;;9.70;6.13;;;1.20;99.90;;;;;;5108361;28;20367;-82
2021/11/28 03:00:31;;;;;;;13.30;7.53;;;1.20;99.90;;;;;;5108395;28;20848;-81
2021/11/28 03:02:57;;;;;;;13.60;7.67;;;1.10;99.90;;;;;;5108409;28;20744;-82
2021/11/28 03:05:23;;;;;;;14.80;7.57;;;1.30;99.90;;;;;;5108341;28;20397;-82
2021/11/28 03:07:49;;;;;;;10.67;5.90;;;1.20;99.90;;;;;;5107946;28;20404;-82
2021/11/28 03:10:43;;;;;;;9.70;6.73;;;1.20;99.90;;;;;;5109124;28;20393;-82
2021/11/28 03:13:16;;;;;;;11.40;6.70;;;1.20;99.90;;;;;;5109378;28;20405;-82
2021/11/28 03:15:43;;;;;;;18.77;7.50;;;1.40;99.90;;;;;;5109304;28;20910;-82
2021/11/28 03:18:12;;;;;;;8.77;6.73;;;1.30;99.90;;;;;;5090891;28;20387;-82
2021/11/28 03:20:38;;;;;;;7.53;6.77;;;1.40;99.90;;;;;;5108293;28;20394;-82
2021/11/28 03:23:04;;;;;;;11.50;7.53;;;1.60;99.90;;;;;;5108612;28;20420;-82
2021/11/28 03:25:32;;;;;;;9.77;7.87;;;1.40;99.90;;;;;;5109424;28;20399;-82
2021/11/28 03:27:58;;;;;;;5.97;5.33;;;1.40;99.90;;;;;;5110661;28;20372;-81
2021/11/28 03:30:24;;;;;;;9.87;6.63;;;1.30;99.90;;;;;;5089200;28;20462;-81
2021/11/28 03:32:50;;;;;;;11.47;6.63;;;1.30;99.90;;;;;;5106858;28;20360;-81
2021/11/28 03:35:17;;;;;;;7.90;5.93;;;1.50;99.90;;;;;;5106853;28;20438;-81
2021/11/28 03:37:43;;;;;;;11.07;6.20;;;1.60;99.90;;;;;;5106481;28;20387;-81
2021/11/28 03:40:10;;;;;;;11.33;8.63;;;1.60;99.90;;;;;;5088306;28;20733;-81
2021/11/28 03:42:36;;;;;;;8.47;5.77;;;1.60;99.90;;;;;;5105920;28;20371;-81
2021/11/28 03:45:08;;;;;;;10.93;6.03;;;1.60;99.90;;;;;;5104662;28;20368;-81
2021/11/28 03:47:35;;;;;;;8.63;7.33;;;1.70;99.90;;;;;;5105030;28;20389;-81
2021/11/28 03:50:01;;;;;;;6.83;4.97;;;1.60;99.90;;;;;;5104537;28;20371;-81
2021/11/28 03:52:27;;;;;;;15.87;7.70;;;1.50;99.90;;;;;;5105226;28;20368;-81
2021/11/28 03:54:54;;;;;;;13.53;6.77;;;1.40;99.90;;;;;;5105459;28;20421;-81
2021/11/28 03:57:20;;;;;;;7.20;5.80;;;1.20;99.90;;;;;;5105319;28;20448;-80
2021/11/28 03:59:48;;;;;;;10.23;6.93;;;1.30;99.90;;;;;;5069860;28;20411;-81
2021/11/28 04:02:16;;;;;;;6.33;5.60;;;1.20;99.90;;;;;;5105246;28;20392;-81
2021/11/28 04:04:42;;;;;;;7.90;6.47;;;1.30;99.90;;;;;;5105301;28;20155;-80
2021/11/28 04:07:08;;;;;;;11.40;7.10;;;1.30;99.90;;;;;;5104564;28;20364;-80
2021/11/28 04:09:34;;;;;;;11.43;7.23;;;1.40;99.90;;;;;;5104523;28;20484;-81
2021/11/28 04:12:00;;;;;;;7.87;4.80;;;1.50;99.90;;;;;;5107442;28;20381;-81
2021/11/28 04:14:26;;;;;;;9.10;7.00;;;1.40;99.90;;;;;;5116430;28;20487;-81
2021/11/28 04:16:52;;;;;;;8.03;7.03;;;1.30;99.90;;;;;;5109680;28;20163;-82
2021/11/28 04:19:18;;;;;;;10.80;7.67;;;1.20;99.90;;;;;;5106907;28;20163;-81
2021/11/28 04:21:45;;;;;;;7.40;5.60;;;1.20;99.90;;;;;;5106352;28;20186;-81
2021/11/28 04:24:12;;;;;;;7.30;5.80;;;1.20;99.90;;;;;;5105642;28;20163;-82
2021/11/28 04:26:39;;;;;;;8.67;7.40;;;1.30;99.90;;;;;;5105573;28;20374;-82
2021/11/28 04:29:05;;;;;;;9.00;5.20;;;1.50;99.90;;;;;;5105615;28;20397;-80
2021/11/28 04:31:31;;;;;;;8.77;6.10;;;1.30;99.90;;;;;;5086768;28;20374;-81
2021/11/28 04:33:57;;;;;;;7.13;5.43;;;1.30;99.90;;;;;;5086857;28;20451;-81
2021/11/28 04:36:23;;;;;;;5.90;5.13;;;1.30;99.90;;;;;;5105288;28;20427;-81
2021/11/28 04:38:49;;;;;;;5.40;4.67;;;1.30;99.90;;;;;;5104508;28;20315;-81
2021/11/28 04:41:15;;;;;;;7.20;5.50;;;1.40;99.90;;;;;;5104627;28;20393;-81
2021/11/28 04:43:41;;;;;;;11.10;5.90;;;1.60;99.90;;;;;;5105194;28;20201;-80
2021/11/28 04:46:06;;;;;;;7.33;5.53;;;1.60;99.90;;;;;;5101853;28;20192;-80
2021/11/28 04:48:32;;;;;;;12.00;6.17;;;1.80;99.90;;;;;;5101974;28;20201;-81
2021/11/28 04:50:58;;;;;;;6.20;5.60;;;1.60;99.90;;;;;;5090729;28;20167;-81
2021/11/28 04:53:24;;;;;;;8.93;5.00;;;1.70;99.90;;;;;;5108805;28;20174;-80
2021/11/28 04:55:50;;;;;;;11.73;7.10;;;1.80;99.90;;;;;;5108540;28;20393;-80
2021/11/28 04:58:16;;;;;;;9.67;6.20;;;1.80;99.90;;;;;;5107838;28;20182;-80
2021/11/28 05:00:42;;;;;;;9.20;6.57;;;1.80;99.90;;;;;;5107723;28;20421;-80
2021/11/28 05:03:08;;;;;;;8.80;5.60;;;2.10;99.90;;;;;;5107708;28;20165;-81
2021/11/28 05:05:34;;;;;;;5.43;4.93;;;1.90;99.90;;;;;;5107643;28;20171;-81
2021/11/28 05:08:00;;;;;;;6.77;5.57;;;2.10;99.90;;;;;;5107749;28;20190;-81
2021/11/28 05:10:26;;;;;;;9.90;7.10;;;2.00;99.90;;;;;;5106809;28;20402;-81
2021/11/28 05:12:52;;;;;;;5.80;4.73;;;1.80;99.90;;;;;;5107492;28;20375;-81
2021/11/28 05:15:19;;;;;;;10.50;5.60;;;1.90;99.90;;;;;;5108279;28;20501;-81
2021/11/28 05:17:45;;;;;;;6.70;5.77;;;2.00;99.90;;;;;;5107774;28;20660;-80
2021/11/28 05:20:12;;;;;;;8.30;5.30;;;1.90;99.90;;;;;;5107913;28;20683;-81
2021/11/28 05:22:38;;;;;;;5.50;4.93;;;2.00;99.90;;;;;;5107243;28;20794;-81
2021/11/28 05:25:06;;;;;;;7.70;6.20;;;2.20;99.90;;;;;;5089732;28;20393;-80
2021/11/28 05:27:32;;;;;;;7.93;5.60;;;2.40;99.90;;;;;;5107875;28;20447;-81
2021/11/28 05:29:57;;;;;;;10.30;5.73;;;2.50;99.90;;;;;;5108025;28;20392;-81
2021/11/28 05:32:24;;;;;;;8.93;6.80;;;2.50;99.90;;;;;;5107835;28;20163;-81
2021/11/28 05:34:50;;;;;;;10.63;5.27;;;2.40;99.90;;;;;;5106964;28;20605;-81
2021/11/28 05:37:16;;;;;;;8.83;6.77;;;2.30;99.90;;;;;;5108389;28;20372;-81
2021/11/28 05:39:43;;;;;;;7.27;4.50;;;2.20;99.90;;;;;;5107564;28;20391;-81
2021/11/28 05:42:09;;;;;;;6.20;5.50;;;2.50;99.90;;;;;;5107982;28;20243;-82
2021/11/28 05:44:35;;;;;;;6.47;5.30;;;2.60;99.90;;;;;;5107978;28;20403;-81
2021/11/28 05:47:01;;;;;;;11.40;4.37;;;2.60;99.90;;;;;;5108589;28;20367;-82
2021/11/28 05:49:27;;;;;;;7.20;5.20;;;2.60;99.90;;;;;;5108398;28;20400;-81
2021/11/28 05:51:53;;;;;;;6.13;5.53;;;2.10;99.90;;;;;;5108040;28;20170;-82
2021/11/28 05:54:19;;;;;;;6.73;5.50;;;2.30;99.90;;;;;;5109662;28;20464;-82
2021/11/28 05:56:45;;;;;;;8.97;6.47;;;2.50;99.90;;;;;;5034586;28;20377;-82
2021/11/28 05:59:12;;;;;;;11.17;7.80;;;2.60;99.90;;;;;;5067097;28;20413;-82
2021/11/28 06:01:38;;;;;;;8.37;5.47;;;2.60;99.90;;;;;;5066849;28;20209;-82
2021/11/28 06:04:04;;;;;;;12.40;5.57;;;2.80;99.90;;;;;;5068737;28;20392;-81
2021/11/28 06:06:30;;;;;;;8.83;6.27;;;2.90;99.90;;;;;;5072260;28;20190;-81
2021/11/28 06:08:56;;;;;;;8.20;6.20;;;2.90;99.90;;;;;;5073786;28;20384;-80
2021/11/28 06:11:22;;;;;;;6.27;5.60;;;2.90;99.90;;;;;;5075457;28;20365;-80
2021/11/28 06:13:47;;;;;;;10.10;6.13;;;2.30;99.90;;;;;;5074154;28;20200;-81
2021/11/28 06:16:13;;;;;;;7.13;5.90;;;2.20;99.90;;;;;;5073750;28;20226;-80
2021/11/28 06:18:39;;;;;;;8.20;5.37;;;1.90;99.90;;;;;;5070779;28;20160;-80
2021/11/28 06:21:05;;;;;;;7.80;6.00;;;2.00;99.90;;;;;;5049793;28;20274;-81
2021/11/28 06:23:31;;;;;;;11.07;6.53;;;2.10;99.90;;;;;;5064355;28;20180;-81
2021/11/28 06:25:57;;;;;;;6.93;6.17;;;2.10;99.90;;;;;;5063856;28;20629;-81
2021/11/28 06:28:23;;;;;;;9.87;6.07;;;2.10;99.90;;;;;;5096189;28;20409;-81
2021/11/28 06:30:49;;;;;;;9.93;5.80;;;2.00;99.90;;;;;;5087518;28;20178;-81
2021/11/28 06:33:16;;;;;;;9.53;6.30;;;2.20;99.90;;;;;;5106021;28;20167;-80
2021/11/28 06:35:41;;;;;;;6.37;5.23;;;2.10;99.90;;;;;;5104757;28;20443;-81
2021/11/28 06:38:07;;;;;;;8.80;6.90;;;1.90;99.90;;;;;;5105423;28;20378;-80
2021/11/28 06:40:33;;;;;;;9.60;6.40;;;1.90;99.90;;;;;;5106561;28;20163;-82
2021/11/28 06:42:59;;;;;;;5.97;5.37;;;2.10;99.90;;;;;;5087706;28;20257;-80
2021/11/28 06:45:25;;;;;;;10.50;5.67;;;2.10;99.90;;;;;;5106417;28;20227;-81
2021/11/28 06:47:51;;;;;;;9.90;7.80;;;2.10;99.90;;;;;;5105843;28;20194;-81
2021/11/28 06:50:17;;;;;;;12.53;7.50;;;2.10;99.90;;;;;;5105964;28;20451;-80
2021/11/28 06:52:43;;;;;;;8.93;7.57;;;2.30;99.90;;;;;;5105736;28;20372;-81
2021/11/28 06:55:09;;;;;;;10.47;7.43;;;2.20;99.90;;;;;;5106371;28;20452;-81
2021/11/28 06:57:35;;;;;;;8.83;6.93;;;2.20;99.90;;;;;;5104689;28;20381;-79
2021/11/28 07:00:02;;;;;;;8.90;6.97;;;2.10;99.90;;;;;;5071393;28;20220;-80
2021/11/28 07:02:28;;;;;;;6.77;5.10;;;2.00;99.90;;;;;;5102325;28;20269;-80
2021/11/28 07:04:54;;;;;;;11.67;6.17;;;2.10;99.90;;;;;;5101985;28;20426;-80
2021/11/28 07:07:20;;;;;;;9.33;7.33;;;2.30;99.90;;;;;;5083857;28;20368;-81
2021/11/28 07:09:45;;;;;;;9.30;6.50;;;2.00;99.90;;;;;;5106165;28;20219;-81
2021/11/28 07:12:11;;;;;;;11.33;5.83;;;1.90;99.90;;;;;;5093841;28;20197;-80
2021/11/28 07:14:37;;;;;;;5.80;5.23;;;2.00;99.90;;;;;;5113058;28;20222;-81
2021/11/28 07:17:03;;;;;;;10.17;6.63;;;2.10;99.90;;;;;;5106944;28;20455;-82
2021/11/28 07:19:29;;;;;;;8.70;6.37;;;2.10;99.90;;;;;;5104902;28;20572;-81
2021/11/28 07:21:56;;;;;;;8.67;6.63;;;2.10;99.90;;;;;;5104906;28;20399;-81
2021/11/28 07:24:23;;;;;;;8.60;7.37;;;2.10;99.90;;;;;;5086845;28;20182;-79
2021/11/28 07:26:49;;;;;;;9.57;7.73;;;2.10;99.90;;;;;;5087733;28;20371;-82
2021/11/28 07:29:15;;;;;;;9.53;6.97;;;2.00;99.90;;;;;;5106350;28;20396;-82
2021/11/28 07:31:40;;;;;;;7.20;6.50;;;1.80;99.90;;;;;;5107188;28;20444;-82
2021/11/28 07:34:13;;;;;;;6.20;5.33;;;1.90;99.90;;;;;;5165149;27;20572;-82
2021/11/28 07:36:39;;;;;;;12.47;7.90;;;1.80;99.90;;;;;;5166042;27;20381;-83
2021/11/28 07:39:09;;;;;;;6.80;5.17;;;1.70;99.90;;;;;;5165601;27;20383;-82
2021/11/28 07:41:36;;;;;;;12.93;7.77;;;1.50;99.90;;;;;;5149052;27;20358;-81
2021/11/28 07:44:02;;;;;;;9.83;7.13;;;1.60;99.90;;;;;;5163987;27;20369;-82
2021/11/28 07:46:28;;;;;;;9.80;6.67;;;1.70;99.90;;;;;;5163386;27;20429;-81
2021/11/28 07:48:54;;;;;;;9.03;7.10;;;1.50;99.90;;;;;;5145043;27;20164;-82
2021/11/28 07:51:21;;;;;;;7.50;5.50;;;1.40;99.90;;;;;;5163325;27;20457;-81
2021/11/28 07:53:49;;;;;;;10.37;6.17;;;1.50;99.90;;;;;;5163115;27;20200;-80
2021/11/28 07:56:15;;;;;;;8.10;5.97;;;1.70;99.90;;;;;;5161946;27;20836;-82
2021/11/28 07:58:41;;;;;;;7.17;5.77;;;1.70;99.90;;;;;;5143450;27;20428;-80
2021/11/28 08:01:07;;;;;;;9.07;7.30;;;1.90;99.90;;;;;;5162784;27;20394;-81
2021/11/28 08:03:33;;;;;;;12.50;8.00;;;1.60;99.90;;;;;;5163179;27;20394;-81
2021/11/28 08:05:59;;;;;;;11.13;7.53;;;1.50;99.90;;;;;;5162130;27;20161;-82
2021/11/28 08:08:27;;;;;;;12.53;7.77;;;1.60;99.90;;;;;;5163159;27;20161;-82
2021/11/28 08:10:54;;;;;;;28.33;7.67;;;1.50;99.90;;;;;;5162193;27;20164;-80
2021/11/28 08:13:21;;;;;;;12.80;7.83;;;1.70;99.90;;;;;;5161393;27;20444;-81
2021/11/28 08:15:48;;;;;;;9.40;6.83;;;2.00;99.90;;;;;;5161887;27;20747;-81
2021/11/28 08:18:14;;;;;;;12.10;6.30;;;2.10;99.90;;;;;;5142782;27;20397;-81
2021/11/28 08:20:43;;;;;;;9.77;6.50;;;2.10;99.90;;;;;;5161691;27;20396;-80
2021/11/28 08:23:09;;;;;;;7.60;6.77;;;2.30;99.90;;;;;;5141150;28;20399;-81
2021/11/28 08:25:35;;;;;;;17.13;7.80;;;2.00;99.90;;;;;;5141309;28;20403;-81
2021/11/28 08:28:01;;;;;;;10.90;6.23;;;1.90;99.90;;;;;;5140289;28;20499;-82
2021/11/28 08:30:27;;;;;;;9.43;6.97;;;2.00;99.90;;;;;;5140674;28;20965;-80
2021/11/28 08:32:53;;;;;;;10.70;7.33;;;1.80;99.90;;;;;;5138704;28;20457;-81
2021/11/28 08:35:19;;;;;;;8.07;7.27;;;1.90;99.90;;;;;;5141981;28;20370;-81
2021/11/28 08:37:46;;;;;;;8.20;7.20;;;2.00;99.90;;;;;;5141901;28;20398;-81
2021/11/28 08:40:16;;;;;;;9.53;7.40;;;1.70;99.90;;;;;;5141303;28;20890;-81
2021/11/28 08:42:42;;;;;;;9.83;7.13;;;1.90;99.90;;;;;;5142359;28;20378;-81
2021/11/28 08:45:10;;;;;;;8.13;6.23;;;1.80;99.90;;;;;;5129109;28;20449;-78
2021/11/28 08:47:46;;;;;;;12.13;9.37;;;1.70;99.90;;;;;;5122049;28;20371;-78
2021/11/28 08:50:17;;;;;;;12.03;8.00;;;2.10;99.90;;;;;;5087307;28;20465;-78
2021/11/28 08:52:47;;;;;;;10.47;7.37;;;2.10;99.90;;;;;;5105211;28;20447;-78
2021/11/28 08:55:16;;;;;;;8.00;7.17;;;2.10;99.90;;;;;;5104622;28;20370;-78
2021/11/28 08:57:46;;;;;;;9.50;7.40;;;2.20;99.90;;;;;;5039564;28;20382;-79
2021/11/28 09:00:13;;;;;;;10.00;7.17;;;2.10;99.90;;;;;;5040618;28;20447;-78
2021/11/28 09:02:41;;;;;;;7.57;6.00;;;1.80;99.90;;;;;;5039760;28;20427;-78
2021/11/28 09:05:11;;;;;;;9.70;7.07;;;2.10;99.90;;;;;;4984001;28;20435;-78
2021/11/28 09:07:38;;;;;;;10.83;7.63;;;2.00;99.90;;;;;;5002260;28;21025;-81
2021/11/28 09:10:04;;;;;;;9.60;7.57;;;1.80;99.90;;;;;;4987687;28;20554;-80
2021/11/28 09:12:30;;;;;;;8.40;6.13;;;2.10;99.90;;;;;;4987621;28;20544;-80
2021/11/28 09:15:05;;;;;;;10.57;7.50;;;2.20;99.90;;;;;;4989557;28;20422;-80
2021/11/28 09:17:31;;;;;;;7.97;6.63;;;2.40;99.90;;;;;;4949463;29;20438;-80
2021/11/28 09:20:04;;;;;;;15.87;8.27;;;2.60;99.90;;;;;;4910520;29;20913;-80
2021/11/28 09:25:25;;;;;;;9.00;6.40;;;2.80;99.90;;;;;;4901366;29;20537;-80
2021/11/28 09:27:54;;;;;;;12.13;6.20;;;2.70;99.90;;;;;;4937169;28;20472;-79
2021/11/28 09:30:23;;;;;;;9.37;6.60;;;2.70;99.90;;;;;;4951565;28;20420;-80
2021/11/28 09:32:50;;;;;;;7.07;5.40;;;2.40;99.90;;;;;;4946419;29;20533;-80
2021/11/28 09:35:16;;;;;;;6.13;4.87;;;2.60;99.90;;;;;;4944384;29;20438;-79
2021/11/28 09:37:45;;;;;;;7.90;6.30;;;2.60;99.90;;;;;;4962285;28;20414;-79
2021/11/28 09:40:11;;;;;;;8.53;6.13;;;2.70;99.90;;;;;;4944680;29;20198;-79
2021/11/28 09:42:40;;;;;;;9.30;7.53;;;2.40;99.90;;;;;;4945736;29;20471;-80
2021/11/28 09:45:08;;;;;;;9.30;8.03;;;2.50;99.90;;;;;;4929758;29;20414;-79
2021/11/28 09:47:38;;;;;;;11.73;7.50;;;2.60;99.90;;;;;;4947217;29;20374;-79
2021/11/28 09:50:07;;;;;;;14.40;6.93;;;2.80;99.90;;;;;;4978868;28;20511;-79
2021/11/28 09:52:37;;;;;;;7.30;5.63;;;2.90;99.90;;;;;;4949430;29;20452;-79
2021/11/28 09:55:07;;;;;;;12.57;8.03;;;2.70;99.90;;;;;;4974889;28;20426;-78
2021/11/28 09:57:33;;;;;;;7.47;5.20;;;2.60;99.90;;;;;;5013760;28;20848;-79
2021/11/28 09:59:59;;;;;;;11.80;6.80;;;2.70;99.90;;;;;;4989556;28;20520;-79
2021/11/28 10:02:28;;;;;;;8.43;6.93;;;2.60;99.90;;;;;;4990039;28;20409;-80
2021/11/28 10:04:57;;;;;;;10.07;6.53;;;2.50;99.90;;;;;;4991287;28;20414;-80
2021/11/28 10:07:25;;;;;;;10.80;7.10;;;2.40;99.90;;;;;;5025930;28;20852;-79
2021/11/28 10:09:53;;;;;;;12.30;9.82;;;2.70;99.90;;;;;;4996284;28;20407;-79
2021/11/28 10:12:26;;;;;;;10.80;8.97;;;2.60;99.90;;;;;;5026988;28;20271;-79
2021/11/28 10:15:08;;;;;;;10.30;7.60;;;2.80;99.90;;;;;;5012206;28;20371;-80
2021/11/28 10:17:38;;;;;;;6.90;6.30;;;2.60;99.90;;;;;;5010322;28;20494;-80
2021/11/28 10:20:15;;;;;;;8.03;5.87;;;2.50;99.90;;;;;;5008487;28;20458;-78
2021/11/28 10:22:41;;;;;;;9.60;6.60;;;2.70;99.90;;;;;;4990016;28;20964;-79
2021/11/28 10:25:18;;;;;;;10.70;7.20;;;2.70;99.90;;;;;;5025029;28;20387;-80
2021/11/28 10:28:00;;;;;;;10.60;6.67;;;2.80;99.90;;;;;;5024662;28;20541;-80
2021/11/28 10:30:46;;;;;;;12.03;8.33;;;2.90;99.90;;;;;;5009934;28;20453;-79
2021/11/28 10:33:21;;;;;;;12.77;7.87;;;3.40;99.90;;;;;;5017572;28;20455;-79
2021/11/28 10:36:08;;;;;;;8.27;7.17;;;3.40;99.90;;;;;;5005769;28;20408;-80
2021/11/28 10:38:36;;;;;;;8.47;6.30;;;3.10;99.90;;;;;;4985777;28;20471;-79
2021/11/28 10:41:22;;;;;;;9.37;6.30;;;3.40;99.90;;;;;;5012842;28;20511;-79
2021/11/28 10:43:48;;;;;;;8.67;6.80;;;3.00;99.90;;;;;;5045636;28;20426;-79
2021/11/28 10:46:28;;;;;;;10.13;7.60;;;2.70;99.90;;;;;;4987999;28;20474;-79
2021/11/28 10:49:17;;;;;;;8.97;8.17;;;2.60;99.90;;;;;;4981704;28;20418;-79
2021/11/28 10:51:49;;;;;;;8.20;7.20;;;2.80;99.90;;;;;;4932233;29;20535;-79
2021/11/28 10:54:37;;;;;;;9.50;7.63;;;3.00;99.90;;;;;;4932941;29;20525;-80
2021/11/28 10:57:17;;;;;;;10.73;8.70;;;2.90;99.90;;;;;;4945214;29;20412;-80
2021/11/28 10:59:55;;;;;;;12.00;7.63;;;3.20;99.90;;;;;;4929351;29;20398;-79
2021/11/28 11:02:25;;;;;;;7.90;6.67;;;3.40;99.90;;;;;;4929880;29;20407;-79
2021/11/28 11:05:03;;;;;;;9.80;5.70;;;2.90;99.90;;;;;;4915032;29;20371;-79
2021/11/28 11:07:51;;;;;;;12.20;8.27;;;3.20;99.90;;;;;;4915514;29;20471;-79
2021/11/28 11:10:20;;;;;;;8.33;5.80;;;3.40;99.90;;;;;;4914681;29;20560;-79
2021/11/28 11:12:50;;;;;;;9.73;8.70;;;3.60;99.90;;;;;;4912203;29;20463;-79
2021/11/28 11:15:40;;;;;;;11.10;8.27;;;3.80;99.90;;;;;;4927295;29;20395;-79
2021/11/28 11:18:09;;;;;;;12.00;8.17;;;3.00;99.90;;;;;;4941461;29;20423;-80
2021/11/28 11:20:38;;;;;;;10.00;7.03;;;3.10;99.90;;;;;;4962657;29;20407;-80
2021/11/28 11:23:24;;;;;;;18.03;8.70;;;3.30;99.90;;;;;;4975774;28;20449;-79
2021/11/28 11:26:11;;;;;;;10.47;8.50;;;3.30;99.90;;;;;;4984356;28;20380;-79
2021/11/28 11:29:07;;;;;;;9.10;6.90;;;3.30;99.90;;;;;;4982549;28;20384;-79
2021/11/28 11:31:34;;;;;;;10.60;7.60;;;3.20;99.90;;;;;;5019005;28;20378;-79
2021/11/28 11:34:22;;;;;;;8.03;7.23;;;3.20;99.90;;;;;;5024481;28;20439;-79
2021/11/28 11:37:01;;;;;;;9.10;7.80;;;3.00;99.90;;;;;;5037185;28;20375;-79
2021/11/28 11:39:29;;;;;;;7.77;5.47;;;3.20;99.90;;;;;;5021123;28;20499;-79
2021/11/28 11:41:56;;;;;;;7.37;6.60;;;3.20;99.90;;;;;;5040587;28;20393;-79
2021/11/28 11:44:25;;;;;;;12.53;8.30;;;3.00;99.90;;;;;;5039543;28;20394;-79
2021/11/28 11:46:52;;;;;;;7.83;7.03;;;3.10;99.90;;;;;;5039507;28;20506;-80
2021/11/28 11:49:19;;;;;;;8.67;6.37;;;3.00;99.90;;;;;;5029629;28;20382;-79
2021/11/28 11:51:47;;;;;;;11.00;8.50;;;2.80;99.90;;;;;;5024688;28;20389;-80
2021/11/28 11:54:29;;;;;;;8.07;6.93;;;3.00;99.90;;;;;;5046777;28;20486;-80
2021/11/28 11:57:09;;;;;;;10.30;5.70;;;3.10;99.90;;;;;;5038677;28;20418;-82
2021/11/28 12:00:02;;;;;;;9.03;8.13;;;3.20;99.90;;;;;;5058716;28;20517;-80
2021/11/28 12:02:31;;;;;;;8.80;6.20;;;3.20;99.90;;;;;;5061471;28;20463;-80
2021/11/28 12:04:59;;;;;;;13.33;7.43;;;3.30;99.90;;;;;;5035722;28;20397;-78
2021/11/28 12:07:49;;;;;;;7.47;6.03;;;3.60;99.90;;;;;;5054327;28;20905;-79
2021/11/28 12:10:29;;;;;;;8.50;6.43;;;3.70;99.90;;;;;;5052920;28;20410;-78
2021/11/28 12:12:55;;;;;;;7.97;6.30;;;3.40;99.90;;;;;;5064007;28;20456;-80
2021/11/28 12:15:28;;;;;;;9.90;6.20;;;3.30;99.90;;;;;;5075702;28;20909;-80
2021/11/28 12:17:55;;;;;;;9.07;7.70;;;3.30;99.90;;;;;;5074077;28;20380;-80
2021/11/28 12:21:01;;;;;;;9.70;7.50;;;3.20;99.90;;;;;;5078681;28;20710;-80
2021/11/28 12:23:53;;;;;;;8.73;6.20;;;3.30;99.90;;;;;;5078575;28;20392;-79
2021/11/28 12:26:36;;;;;;;20.77;9.63;;;3.30;99.90;;;;;;5079463;28;20406;-79
2021/11/28 12:29:23;;;;;;;6.90;6.07;;;3.40;99.90;;;;;;5080014;28;20376;-79
2021/11/28 12:32:14;;;;;;;10.13;5.93;;;3.40;99.90;;;;;;5079618;28;20861;-79
2021/11/28 12:34:49;;;;;;;8.90;6.90;;;3.60;99.90;;;;;;5119214;28;20722;-81
2021/11/28 12:37:26;;;;;;;6.70;6.07;;;3.60;99.90;;;;;;5101185;28;20366;-80
2021/11/28 12:40:22;;;;;;;12.63;6.70;;;3.40;99.90;;;;;;5120002;28;20420;-79
2021/11/28 12:42:57;;;;;;;12.60;6.87;;;3.30;99.90;;;;;;5033572;28;20432;-79
2021/11/28 12:45:28;;;;;;;8.33;6.90;;;3.50;99.90;;;;;;5064771;28;20381;-79
2021/11/28 12:48:17;;;;;;;9.23;7.70;;;3.30;99.90;;;;;;5044828;28;20393;-79
2021/11/28 12:50:53;;;;;;;10.95;8.98;;;3.30;99.90;;;;;;5052432;28;20394;-80
2021/11/28 12:53:41;;;;;;;12.60;7.40;;;3.30;99.90;;;;;;5053919;28;20207;-80
2021/11/28 12:56:21;;;;;;;9.23;7.50;;;3.40;99.90;;;;;;5069386;28;20403;-80
2021/11/28 12:59:15;;;;;;;8.37;6.00;;;3.30;99.90;;;;;;5035218;28;20823;-79
2021/11/28 13:02:00;;;;;;;9.50;5.80;;;3.20;99.90;;;;;;5052118;28;20404;-80
2021/11/28 13:04:43;;;;;;;6.13;5.53;;;3.30;99.90;;;;;;5045117;28;20409;-79
2021/11/28 13:07:36;;;;;;;8.03;5.67;;;3.30;99.90;;;;;;5046542;28;20409;-79
2021/11/28 13:10:26;;;;;;;8.33;6.17;;;3.30;99.90;;;;;;5044717;28;20415;-79